createdAt,value
2023-07-14T00:00:40.695Z,0.00
2023-07-14T00:05:41.777Z,0.00
2023-07-14T00:10:42.824Z,0.00
2023-07-14T00:15:43.972Z,0.00
2023-07-14T00:20:45.188Z,0.00
2023-07-14T00:25:46.343Z,0.00
2023-07-14T00:30:49.407Z,0.00
2023-07-14T00:35:50.430Z,0.00
2023-07-14T00:40:52.792Z,0.00
2023-07-14T00:45:51.590Z,0.00
2023-07-14T00:50:52.598Z,0.00
2023-07-14T00:55:51.745Z,0.00
2023-07-14T01:00:52.777Z,0.00
2023-07-14T01:06:12.844Z,0.00
2023-07-14T01:10:53.900Z,0.00
2023-07-14T01:15:54.957Z,0.00
2023-07-14T01:20:55.960Z,0.00
2023-07-14T01:25:57.131Z,0.00
2023-07-14T01:30:58.189Z,0.00
2023-07-14T01:36:00.225Z,0.00
2023-07-14T01:41:00.259Z,0.00
2023-07-14T01:46:00.354Z,0.00
2023-07-14T01:50:59.381Z,0.00
2023-07-14T01:56:00.425Z,0.00
2023-07-14T02:01:01.563Z,0.00
2023-07-14T02:06:03.623Z,0.00
2023-07-14T02:11:02.654Z,0.00
2023-07-14T02:16:48.746Z,0.00
2023-07-14T02:21:03.755Z,0.00
2023-07-14T02:26:04.785Z,0.00
2023-07-14T02:31:05.911Z,0.00
2023-07-14T02:36:07.996Z,0.00
2023-07-14T02:41:07.051Z,0.00
2023-07-14T02:46:08.200Z,0.00
2023-07-14T02:51:09.278Z,0.00
2023-07-14T02:56:11.313Z,4.00
2023-07-14T03:01:11.646Z,4.00
2023-07-14T03:06:10.837Z,8.00
2023-07-14T03:11:13.236Z,12.00
2023-07-14T03:16:12.511Z,16.00
2023-07-14T03:21:13.973Z,36.00
2023-07-14T03:26:13.291Z,72.00
2023-07-14T03:31:15.678Z,132.00
2023-07-14T03:36:15.756Z,220.00
2023-07-14T03:41:16.346Z,336.00
2023-07-14T03:46:16.983Z,524.00
2023-07-14T03:51:17.126Z,704.00
2023-07-14T03:56:17.525Z,908.00
2023-07-14T04:01:16.875Z,1132.00
2023-07-14T04:06:17.873Z,1380.00
2023-07-14T04:11:18.961Z,1644.00
2023-07-14T04:16:21.047Z,2068.00
2023-07-14T04:21:21.040Z,4212.00
2023-07-14T04:26:21.124Z,3096.00
2023-07-14T04:31:20.187Z,3444.00
2023-07-14T04:36:21.256Z,3508.00
2023-07-14T04:41:22.273Z,3644.00
2023-07-14T04:46:23.359Z,3680.00
2023-07-14T04:51:25.395Z,3828.00
2023-07-14T04:56:24.455Z,3976.00
2023-07-14T05:01:25.651Z,4076.00
2023-07-14T05:06:26.731Z,4152.00
2023-07-14T05:11:28.816Z,4224.00
2023-07-14T05:16:27.922Z,4280.00
2023-07-14T05:21:28.948Z,4360.00
2023-07-14T05:26:30.010Z,4412.00
2023-07-14T05:31:31.135Z,4500.00
2023-07-14T05:36:34.149Z,4576.00
2023-07-14T05:41:33.183Z,4656.00
2023-07-14T05:46:34.248Z,4716.00
2023-07-14T05:51:35.406Z,4756.00
2023-07-14T05:56:38.431Z,4832.00
2023-07-14T06:01:37.625Z,4868.00
2023-07-14T06:06:38.697Z,4860.00
2023-07-14T06:11:40.704Z,4852.00
2023-07-14T06:16:39.769Z,4776.00
2023-07-14T06:21:40.779Z,4904.00
2023-07-14T06:26:42.817Z,4828.00
2023-07-14T06:31:41.879Z,4780.00
2023-07-14T06:36:44.096Z,4848.00
2023-07-14T06:41:43.113Z,4892.00
2023-07-14T06:46:44.214Z,5020.00
2023-07-14T06:51:46.343Z,5088.00
2023-07-14T06:56:46.387Z,5276.00
2023-07-14T07:01:45.446Z,5672.00
2023-07-14T07:06:46.440Z,5944.00
2023-07-14T07:11:48.497Z,6192.00
2023-07-14T07:16:48.537Z,6600.00
2023-07-14T07:21:48.567Z,6704.00
2023-07-14T07:26:48.608Z,6912.00
2023-07-14T07:31:47.794Z,7600.00
2023-07-14T07:36:49.075Z,7692.00
2023-07-14T07:41:50.094Z,7484.00
2023-07-14T07:46:51.180Z,7512.00
2023-07-14T07:51:52.380Z,6812.00
2023-07-14T07:56:54.457Z,6968.00
2023-07-14T08:01:53.578Z,7148.00
2023-07-14T08:06:54.611Z,7216.00
2023-07-14T08:11:56.656Z,6624.00
2023-07-14T08:16:55.750Z,7120.00
2023-07-14T08:21:56.748Z,6952.00
2023-07-14T08:26:57.765Z,6972.00
2023-07-14T08:31:58.871Z,7224.00
2023-07-14T08:36:59.919Z,7360.00
2023-07-14T08:42:01.965Z,7632.00
2023-07-14T08:47:02.023Z,8120.00
2023-07-14T08:52:04.058Z,8276.00
2023-07-14T08:57:01.132Z,8100.00
2023-07-14T09:02:02.154Z,8236.00
2023-07-14T09:07:03.196Z,8108.00
2023-07-14T09:12:05.234Z,8936.00
2023-07-14T09:17:05.560Z,8300.00
2023-07-14T09:22:04.611Z,8084.00
2023-07-14T09:27:05.657Z,8696.00
2023-07-14T09:32:06.600Z,9528.00
2023-07-14T09:37:06.646Z,9076.00
2023-07-14T09:42:06.778Z,9448.00
2023-07-14T09:47:05.805Z,9968.00
2023-07-14T09:52:07.865Z,9596.00
2023-07-14T09:57:07.898Z,9204.00
2023-07-14T10:02:08.957Z,9156.00
2023-07-14T10:07:07.998Z,8304.00
2023-07-14T10:12:09.082Z,8652.00
2023-07-14T10:17:11.311Z,8528.00
2023-07-14T10:22:10.467Z,8620.00
2023-07-14T10:27:11.469Z,8188.00
2023-07-14T10:32:14.524Z,7432.00
2023-07-14T10:37:14.039Z,6916.00
2023-07-14T10:42:13.155Z,6512.00
2023-07-14T10:47:14.865Z,6464.00
2023-07-14T10:52:16.888Z,6496.00
2023-07-14T10:57:16.930Z,6772.00
2023-07-14T11:02:16.238Z,7028.00
2023-07-14T11:07:18.268Z,7152.00
2023-07-14T11:12:17.334Z,7176.00
2023-07-14T11:17:18.400Z,7340.00
2023-07-14T11:22:21.942Z,8124.00
2023-07-14T11:27:19.678Z,8672.00
2023-07-14T11:32:20.776Z,8728.00
2023-07-14T11:37:21.849Z,8228.00
2023-07-14T11:42:23.914Z,7844.00
2023-07-14T11:47:22.974Z,6816.00
2023-07-14T11:52:24.004Z,5492.00
2023-07-14T11:57:25.091Z,8796.00
2023-07-14T12:02:26.248Z,9068.00
2023-07-14T12:07:27.382Z,7480.00
2023-07-14T12:12:29.435Z,6136.00
2023-07-14T12:17:28.520Z,6256.00
2023-07-14T12:22:30.576Z,6588.00
2023-07-14T12:27:29.635Z,6524.00
2023-07-14T12:32:31.702Z,6532.00
2023-07-14T12:37:30.920Z,6516.00
2023-07-14T12:42:33.087Z,6532.00
2023-07-14T12:47:32.086Z,6640.00
2023-07-14T12:52:42.124Z,5844.00
2023-07-14T12:57:34.341Z,6456.00
2023-07-14T13:02:35.565Z,6516.00
2023-07-14T13:07:36.598Z,6800.00
2023-07-14T13:12:36.689Z,7852.00
2023-07-14T13:17:40.793Z,7836.00
2023-07-14T13:22:37.071Z,7892.00
2023-07-14T13:27:37.158Z,8604.00
2023-07-14T13:32:36.317Z,8448.00
2023-07-14T13:37:37.460Z,8700.00
2023-07-14T13:42:38.510Z,8984.00
2023-07-14T13:47:39.574Z,9240.00
2023-07-14T13:52:40.604Z,9192.00
2023-07-14T13:57:44.910Z,9156.00
2023-07-14T14:02:41.572Z,8280.00
2023-07-14T14:07:43.606Z,8136.00
2023-07-14T14:12:44.662Z,7824.00
2023-07-14T14:17:44.706Z,8000.00
2023-07-14T14:22:44.814Z,7504.00
2023-07-14T14:27:44.808Z,7848.00
2023-07-14T19:57:03.261Z,0.00
2023-07-14T20:02:03.508Z,0.00
2023-07-14T20:07:04.728Z,0.00
2023-07-14T20:12:05.133Z,0.00
2023-07-14T20:17:06.300Z,0.00
2023-07-14T20:22:05.482Z,0.00
2023-07-14T20:27:07.973Z,0.00
2023-07-14T20:32:07.226Z,0.00
2023-07-14T20:37:10.590Z,0.00
2023-07-14T20:42:10.558Z,0.00
2023-07-14T20:47:09.744Z,0.00
2023-07-14T20:52:12.783Z,0.00
2023-07-14T20:57:13.969Z,0.00
2023-07-14T21:02:12.028Z,0.00
2023-07-14T21:07:13.062Z,0.00
2023-07-14T21:12:14.096Z,0.00
2023-07-14T21:17:15.273Z,0.00
2023-07-14T21:22:16.346Z,0.00
2023-07-14T21:27:19.380Z,0.00
2023-07-14T21:32:17.438Z,0.00
2023-07-14T21:37:20.513Z,0.00
2023-07-14T21:42:19.543Z,0.00
2023-07-14T21:47:21.706Z,0.00
2023-07-14T21:52:20.909Z,0.00
2023-07-14T21:57:23.188Z,0.00
2023-07-14T22:02:22.306Z,0.00
2023-07-14T22:07:23.284Z,0.00
2023-07-14T22:12:24.349Z,0.00
2023-07-14T22:17:25.430Z,0.00
2023-07-14T22:22:26.507Z,0.00
2023-07-14T22:27:27.549Z,0.00
2023-07-14T22:32:28.610Z,0.00
2023-07-14T22:37:29.612Z,0.00
2023-07-14T22:42:31.642Z,0.00
2023-07-14T22:47:31.732Z,0.00
2023-07-14T22:52:30.736Z,0.00
2023-07-14T22:57:32.784Z,0.00
2023-07-14T23:02:32.842Z,0.00
2023-07-14T23:07:31.879Z,0.00
2023-07-14T23:12:32.909Z,0.00
2023-07-14T23:17:35.079Z,0.00
2023-07-14T23:22:35.160Z,0.00
2023-07-14T23:27:34.280Z,0.00
2023-07-14T23:32:35.359Z,0.00
2023-07-14T23:37:36.389Z,0.00
2023-07-14T23:42:38.456Z,0.00
2023-07-14T23:47:39.560Z,0.00
2023-07-14T23:52:37.673Z,0.00
2023-07-14T23:57:38.700Z,0.00
